createdAt,value
2019-02-04T00:00:56.238Z,102050.37
2019-02-04T00:03:25.865Z,102052.92
2019-02-04T00:05:55.538Z,102047.42
2019-02-04T00:08:25.334Z,102047.29
2019-02-04T00:10:54.846Z,102047.77
2019-02-04T00:13:24.427Z,102041.69
2019-02-04T00:15:53.989Z,102041.28
2019-02-04T00:18:23.659Z,102039.36
2019-02-04T00:20:53.237Z,102040.63
2019-02-04T00:23:22.899Z,102044.19
2019-02-04T00:25:52.529Z,102045.84
2019-02-04T00:28:22.067Z,102055.27
2019-02-04T00:30:51.551Z,102050.05
2019-02-04T00:33:21.088Z,102047.12
2019-02-04T00:35:50.575Z,102049.24
2019-02-04T00:38:20.184Z,102059.66
2019-02-04T00:40:49.688Z,102058.66
2019-02-04T00:43:19.243Z,102063.13
2019-02-04T00:45:48.871Z,102074.05
2019-02-04T00:48:18.420Z,102075.16
2019-02-04T00:50:48.284Z,102074.54
2019-02-04T00:53:17.856Z,102074.16
2019-02-04T00:55:47.365Z,102080.57
2019-02-04T00:58:16.865Z,102083.39
2019-02-04T01:00:46.521Z,102091.27
2019-02-04T01:03:16.151Z,102093.34
2019-02-04T01:05:46.252Z,102087.59
2019-02-04T01:08:16.075Z,102100.34
2019-02-04T01:10:45.660Z,102096.50
2019-02-04T01:13:15.296Z,102096.92
2019-02-04T01:15:44.940Z,102092.07
2019-02-04T01:18:14.421Z,102098.89
2019-02-04T01:20:43.981Z,102093.02
2019-02-04T01:23:13.471Z,102090.70
2019-02-04T01:25:43.045Z,102097.45
2019-02-04T01:28:12.561Z,102110.19
2019-02-04T01:30:42.166Z,102101.05
2019-02-04T01:33:12.037Z,102106.05
2019-02-04T01:35:41.573Z,102107.73
2019-02-04T01:38:11.094Z,102109.63
2019-02-04T01:40:40.653Z,102110.00
2019-02-04T01:43:10.151Z,102113.80
2019-02-04T01:45:39.657Z,102109.83
2019-02-04T01:48:09.232Z,102110.47
2019-02-04T01:50:38.741Z,102106.70
2019-02-04T01:53:08.279Z,102111.16
2019-02-04T01:55:37.778Z,102107.45
2019-02-04T01:58:07.900Z,102105.55
2019-02-04T02:00:38.078Z,102101.98
2019-02-04T02:03:07.646Z,102108.63
2019-02-04T02:05:37.286Z,102115.90
2019-02-04T02:08:06.870Z,102128.65
2019-02-04T02:10:36.504Z,102127.89
2019-02-04T02:13:06.134Z,102123.39
2019-02-04T02:15:35.926Z,102127.58
2019-02-04T02:18:05.677Z,102120.94
2019-02-04T02:20:35.184Z,102116.11
2019-02-04T02:23:05.370Z,102116.99
2019-02-04T02:25:34.848Z,102111.53
2019-02-04T02:28:05.431Z,102111.31
2019-02-04T02:30:35.146Z,102103.02
2019-02-04T02:33:04.626Z,102101.50
2019-02-04T02:35:34.127Z,102097.78
2019-02-04T02:38:03.746Z,102103.14
2019-02-04T02:40:34.427Z,102094.22
2019-02-04T02:43:05.210Z,102088.61
2019-02-04T02:45:34.703Z,102092.19
2019-02-04T02:48:04.699Z,102093.98
2019-02-04T02:50:34.200Z,102088.75
2019-02-04T02:53:03.751Z,102090.53
2019-02-04T02:55:33.246Z,102090.41
2019-02-04T02:58:02.835Z,102089.77
2019-02-04T03:00:32.391Z,102087.98
2019-02-04T03:03:02.152Z,102090.02
2019-02-04T03:05:31.748Z,102093.83
2019-02-04T03:08:01.253Z,102094.99
2019-02-04T03:10:33.136Z,102094.62
2019-02-04T03:13:02.735Z,102104.70
2019-02-04T03:15:33.798Z,102104.68
2019-02-04T03:18:03.355Z,102115.63
2019-02-04T03:20:32.854Z,102113.98
2019-02-04T03:23:02.371Z,102109.40
2019-02-04T03:25:31.895Z,102109.51
2019-02-04T03:28:01.423Z,102109.52
2019-02-04T03:30:33.632Z,102106.30
2019-02-04T03:33:03.344Z,102110.50
2019-02-04T03:35:32.975Z,102103.63
2019-02-04T03:38:02.833Z,102107.19
2019-02-04T03:40:33.734Z,102112.02
2019-02-04T03:43:03.305Z,102115.61
2019-02-04T03:45:32.948Z,102120.05
2019-02-04T03:48:06.035Z,102128.70
2019-02-04T03:50:33.710Z,102120.05
2019-02-04T03:53:03.199Z,102117.38
2019-02-04T03:55:32.770Z,102118.42
2019-02-04T03:58:02.328Z,102116.12
2019-02-04T04:00:36.854Z,102119.47
2019-02-04T04:03:06.509Z,102119.45
2019-02-04T04:05:36.092Z,102123.80
2019-02-04T04:08:05.731Z,102115.53
2019-02-04T04:10:35.321Z,102117.67
2019-02-04T04:13:04.954Z,102123.42
2019-02-04T04:15:34.452Z,102120.20
2019-02-04T04:18:15.155Z,102129.67
2019-02-04T04:20:35.747Z,102135.42
2019-02-04T04:23:05.331Z,102129.41
2019-02-04T04:25:34.845Z,102133.11
2019-02-04T04:28:04.503Z,102129.55
2019-02-04T04:30:34.170Z,102124.94
2019-02-04T04:33:03.656Z,102127.12
2019-02-04T04:35:33.164Z,102126.38
2019-02-04T04:38:02.653Z,102120.24
2019-02-04T04:40:32.236Z,102120.48
2019-02-04T04:43:01.728Z,102124.06
2019-02-04T04:45:31.758Z,102125.09
2019-02-04T04:48:01.265Z,102122.26
2019-02-04T04:50:30.783Z,102122.76
2019-02-04T04:53:00.296Z,102123.80
2019-02-04T04:55:29.963Z,102121.63
2019-02-04T04:57:59.456Z,102119.34
2019-02-04T05:00:31.559Z,102114.59
2019-02-04T05:03:01.136Z,102116.88
2019-02-04T05:05:30.702Z,102116.20
2019-02-04T05:08:00.231Z,102105.86
2019-02-04T05:10:29.712Z,102112.83
2019-02-04T05:12:59.214Z,102116.55
2019-02-04T05:15:30.354Z,102110.70
2019-02-04T05:17:59.867Z,102104.28
2019-02-04T05:20:29.449Z,102105.09
2019-02-04T05:22:59.008Z,102108.33
2019-02-04T05:25:28.519Z,102114.25
2019-02-04T05:27:58.080Z,102113.50
2019-02-04T05:30:27.724Z,102115.28
2019-02-04T05:32:57.485Z,102111.88
2019-02-04T05:35:27.041Z,102123.41
2019-02-04T05:37:56.558Z,102127.02
2019-02-04T05:40:26.049Z,102125.55
2019-02-04T05:42:55.690Z,102136.17
2019-02-04T05:45:25.185Z,102129.07
2019-02-04T05:47:54.692Z,102139.14
2019-02-04T05:50:24.209Z,102146.97
2019-02-04T05:52:53.697Z,102144.12
2019-02-04T05:55:23.926Z,102146.42
2019-02-04T05:57:53.485Z,102142.98
2019-02-04T06:00:28.197Z,102145.19
2019-02-04T06:02:57.730Z,102147.42
2019-02-04T06:05:27.346Z,102152.30
2019-02-04T06:07:56.875Z,102143.89
2019-02-04T06:10:26.392Z,102145.67
2019-02-04T06:12:55.977Z,102148.86
2019-02-04T06:15:25.522Z,102142.61
2019-02-04T06:17:55.021Z,102143.00
2019-02-04T06:20:26.054Z,102148.23
2019-02-04T06:22:55.892Z,102146.69
2019-02-04T06:25:25.492Z,102135.73
2019-02-04T06:27:55.125Z,102134.61
2019-02-04T06:30:24.759Z,102139.01
2019-02-04T06:32:54.282Z,102141.61
2019-02-04T06:35:23.855Z,102136.64
2019-02-04T06:37:53.455Z,102135.88
2019-02-04T06:40:23.105Z,102139.80
2019-02-04T06:42:52.653Z,102149.14
2019-02-04T06:45:22.211Z,102146.45
2019-02-04T06:47:51.886Z,102144.12
2019-02-04T06:50:22.873Z,102142.37
2019-02-04T06:52:52.410Z,102148.60
2019-02-04T06:55:28.964Z,102144.64
2019-02-04T06:57:58.539Z,102139.03
2019-02-04T07:00:28.105Z,102134.54
2019-02-04T07:02:57.733Z,102137.23
2019-02-04T07:05:27.313Z,102139.26
2019-02-04T07:07:56.817Z,102134.48
2019-02-04T07:10:28.432Z,102135.82
2019-02-04T07:12:57.999Z,102136.43
2019-02-04T07:15:27.603Z,102136.02
2019-02-04T07:18:01.969Z,102135.91
2019-02-04T07:20:28.754Z,102139.88
2019-02-04T07:22:58.255Z,102144.09
2019-02-04T07:25:27.872Z,102142.92
2019-02-04T07:27:57.360Z,102133.06
2019-02-04T07:30:28.754Z,102130.23
2019-02-04T07:32:58.234Z,102126.65
2019-02-04T07:35:27.870Z,102128.73
2019-02-04T07:37:57.363Z,102123.59
2019-02-04T07:40:34.708Z,102133.70
2019-02-04T07:43:04.258Z,102134.20
2019-02-04T07:45:34.150Z,102135.30
2019-02-04T07:48:03.613Z,102137.86
2019-02-04T07:50:33.099Z,102137.36
2019-02-04T07:53:02.643Z,102131.51
2019-02-04T07:55:32.218Z,102143.25
2019-02-04T07:58:01.773Z,102142.48
2019-02-04T08:00:37.178Z,102135.55
2019-02-04T08:03:06.716Z,102142.94
2019-02-04T08:05:36.419Z,102142.61
2019-02-04T08:08:06.146Z,102144.77
2019-02-04T08:10:35.633Z,102138.83
2019-02-04T08:13:05.643Z,102148.22
2019-02-04T08:15:37.918Z,102149.50
2019-02-04T08:18:08.129Z,102144.23
2019-02-04T08:20:37.886Z,102144.96
2019-02-04T08:23:07.523Z,102143.68
2019-02-04T08:25:37.279Z,102139.41
2019-02-04T08:28:06.852Z,102138.28
2019-02-04T08:30:38.674Z,102135.42
2019-02-04T08:33:08.361Z,102135.57
2019-02-04T08:35:37.920Z,102129.80
2019-02-04T08:38:07.552Z,102126.45
2019-02-04T08:40:37.442Z,102119.73
2019-02-04T08:43:07.268Z,102121.86
2019-02-04T08:45:36.857Z,102116.66
2019-02-04T08:48:06.874Z,102109.49
2019-02-04T08:50:36.547Z,102114.49
2019-02-04T08:53:06.193Z,102102.31
2019-02-04T08:55:36.059Z,102103.08
2019-02-04T08:58:06.554Z,102103.17
2019-02-04T09:00:36.102Z,102097.67
2019-02-04T09:03:05.686Z,102092.55
2019-02-04T09:05:35.185Z,102087.95
2019-02-04T09:08:04.817Z,102081.14
2019-02-04T09:10:35.251Z,102084.47
2019-02-04T09:13:04.957Z,102089.06
2019-02-04T09:15:34.537Z,102090.53
2019-02-04T09:18:05.809Z,102090.73
2019-02-04T09:20:35.362Z,102091.91
2019-02-04T09:23:06.220Z,102090.73
2019-02-04T09:25:36.426Z,102083.78
2019-02-04T09:28:05.987Z,102095.65
2019-02-04T09:30:35.540Z,102092.59
2019-02-04T09:33:05.153Z,102085.24
2019-02-04T09:35:34.843Z,102090.06
2019-02-04T09:38:04.417Z,102082.30
2019-02-04T09:40:58.933Z,102078.94
2019-02-04T09:43:28.486Z,102082.77
2019-02-04T09:45:58.116Z,102074.19
2019-02-04T09:48:27.600Z,102071.80
2019-02-04T09:50:57.290Z,102063.70
2019-02-04T09:53:26.762Z,102071.41
2019-02-04T09:55:57.114Z,102067.06
2019-02-04T09:58:26.743Z,102060.72
2019-02-04T10:00:56.409Z,102061.24
2019-02-04T10:03:25.951Z,102055.77
2019-02-04T10:05:55.508Z,102054.20
2019-02-04T10:08:24.986Z,102057.58
2019-02-04T10:10:54.553Z,102056.69
2019-02-04T10:13:24.064Z,102048.86
2019-02-04T10:15:53.543Z,102051.83
2019-02-04T10:18:23.443Z,102050.23
2019-02-04T10:20:53.061Z,102050.96
2019-02-04T10:23:22.634Z,102052.06
2019-02-04T10:25:52.296Z,102051.19
2019-02-04T10:28:21.824Z,102053.83
2019-02-04T10:30:51.380Z,102043.89
2019-02-04T10:33:20.948Z,102036.22
2019-02-04T10:35:50.735Z,102039.44
2019-02-04T10:38:20.279Z,102040.03
2019-02-04T10:40:49.929Z,102041.71
2019-02-04T10:43:19.557Z,102041.14
2019-02-04T10:45:49.506Z,102041.34
2019-02-04T10:48:19.009Z,102036.28
2019-02-04T10:50:48.521Z,102037.47
2019-02-04T10:53:18.061Z,102041.71
2019-02-04T10:55:47.716Z,102039.31
2019-02-04T10:58:17.372Z,102031.50
2019-02-04T11:00:47.358Z,102029.73
2019-02-04T11:03:19.813Z,102031.83
2019-02-04T11:05:48.230Z,102031.09
2019-02-04T11:08:17.930Z,102032.80
2019-02-04T11:10:47.549Z,102030.18
2019-02-04T11:13:18.077Z,102026.89
2019-02-04T11:15:48.455Z,102024.23
2019-02-04T11:18:18.432Z,102022.94
2019-02-04T11:20:57.678Z,102020.31
2019-02-04T11:23:19.553Z,102015.18
2019-02-04T11:25:49.588Z,102011.27
2019-02-04T11:28:19.584Z,102013.41
2019-02-04T11:30:53.561Z,102007.74
2019-02-04T11:33:23.276Z,101997.13
2019-02-04T11:35:52.868Z,101990.66
2019-02-04T11:38:22.509Z,101997.47
2019-02-04T11:40:52.604Z,101997.19
2019-02-04T11:43:22.197Z,101988.05
2019-02-04T11:45:51.717Z,101992.63
2019-02-04T11:48:21.554Z,101987.28
2019-02-04T11:50:51.100Z,101978.72
2019-02-04T11:53:31.912Z,101980.69
2019-02-04T11:55:52.012Z,101978.44
2019-02-04T11:58:21.495Z,101974.38
2019-02-04T12:00:51.421Z,101978.89
2019-02-04T12:03:21.029Z,101982.04
2019-02-04T12:05:50.661Z,101975.98
2019-02-04T12:08:20.226Z,101970.88
2019-02-04T12:11:00.585Z,101974.61
2019-02-04T12:13:30.197Z,101975.16
2019-02-04T12:15:59.778Z,101974.57
2019-02-04T12:18:29.266Z,101973.70
2019-02-04T12:20:58.814Z,101977.78
2019-02-04T12:23:28.504Z,101975.55
2019-02-04T12:25:57.989Z,101961.03
2019-02-04T12:28:27.558Z,101960.70
2019-02-04T12:30:57.180Z,101958.61
2019-02-04T12:33:26.688Z,101970.77
2019-02-04T12:35:56.632Z,101976.46
2019-02-04T12:38:26.207Z,101969.53
2019-02-04T12:40:55.888Z,101968.67
2019-02-04T12:43:25.400Z,101969.05
2019-02-04T12:45:54.979Z,101974.88
2019-02-04T12:48:24.999Z,101972.15
2019-02-04T12:50:54.840Z,101973.45
2019-02-04T12:53:24.422Z,101971.70
2019-02-04T12:55:54.030Z,101969.00
2019-02-04T12:58:23.594Z,101958.38
2019-02-04T13:00:53.147Z,101963.92
2019-02-04T13:03:22.721Z,101950.64
2019-02-04T13:05:52.954Z,101949.15
2019-02-04T13:08:22.587Z,101951.63
2019-02-04T13:10:52.139Z,101950.18
2019-02-04T13:13:21.998Z,101945.68
2019-02-04T13:15:51.549Z,101947.48
2019-02-04T13:18:21.241Z,101940.52
2019-02-04T13:20:50.876Z,101940.42
2019-02-04T13:23:20.432Z,101946.75
2019-02-04T13:25:50.000Z,101951.98
2019-02-04T13:28:19.734Z,101941.30
2019-02-04T13:30:49.325Z,101940.42
2019-02-04T13:33:19.472Z,101938.75
2019-02-04T13:35:49.253Z,101945.66
2019-02-04T13:38:18.804Z,101938.89
2019-02-04T13:40:48.432Z,101941.91
2019-02-04T13:43:18.072Z,101935.03
2019-02-04T13:45:47.706Z,101937.92
2019-02-04T13:48:17.591Z,101933.64
2019-02-04T13:50:47.243Z,101925.52
2019-02-04T13:53:16.869Z,101921.34
2019-02-04T13:55:46.440Z,101926.66
2019-02-04T13:58:15.992Z,101928.12
2019-02-04T14:00:45.786Z,101929.94
2019-02-04T14:03:17.600Z,101930.80
2019-02-04T14:05:46.651Z,101931.55
2019-02-04T14:08:16.126Z,101923.86
2019-02-04T14:10:46.322Z,101916.59
2019-02-04T14:13:16.012Z,101907.22
2019-02-04T14:15:45.705Z,101905.02
2019-02-04T14:18:16.896Z,101917.22
2019-02-04T14:20:46.638Z,101905.09
2019-02-04T14:23:16.177Z,101918.70
2019-02-04T14:25:45.831Z,101912.50
2019-02-04T14:28:15.867Z,101904.22
2019-02-04T14:30:45.593Z,101899.23
2019-02-04T14:33:15.291Z,101897.16
2019-02-04T14:35:44.944Z,101903.78
2019-02-04T14:38:14.440Z,101903.38
2019-02-04T14:40:44.134Z,101902.08
2019-02-04T14:43:21.362Z,101896.08
2019-02-04T14:46:21.263Z,101895.09
2019-02-04T14:49:16.601Z,101896.08
2019-02-04T14:51:50.788Z,101887.17
2019-02-04T14:54:59.569Z,101890.89
2019-02-04T14:57:57.469Z,101894.59
2019-02-04T15:01:06.477Z,101894.95
2019-02-04T15:04:21.704Z,101900.55
2019-02-04T15:07:01.679Z,101894.34
2019-02-04T15:10:07.768Z,101892.95
2019-02-04T15:13:09.003Z,101898.45
2019-02-04T15:16:06.488Z,101897.16
2019-02-04T15:18:55.429Z,101892.66
2019-02-04T15:21:43.157Z,101894.01
2019-02-04T15:24:28.726Z,101888.78
2019-02-04T15:27:08.697Z,101896.83
2019-02-04T15:29:46.824Z,101896.01
2019-02-04T15:32:33.615Z,101894.01
2019-02-04T15:35:20.098Z,101890.79
2019-02-04T15:37:57.200Z,101893.12
2019-02-04T15:40:42.611Z,101884.41
2019-02-04T15:43:19.421Z,101890.04
2019-02-04T15:46:11.313Z,101887.09
2019-02-04T15:49:04.899Z,101879.90
2019-02-04T15:51:38.923Z,101885.05
2019-02-04T15:54:08.479Z,101885.22
2019-02-04T15:56:38.024Z,101881.49
2019-02-04T15:59:07.563Z,101886.64
2019-02-04T16:01:37.147Z,101880.26
2019-02-04T16:04:27.608Z,101883.89
2019-02-04T16:06:57.375Z,101890.16
2019-02-04T16:09:28.107Z,101887.81
2019-02-04T16:11:57.677Z,101887.11
2019-02-04T16:14:27.252Z,101892.60
2019-02-04T16:16:56.914Z,101899.34
2019-02-04T16:19:26.374Z,101898.21
2019-02-04T16:21:55.868Z,101904.65
2019-02-04T16:24:25.362Z,101899.57
2019-02-04T16:26:54.863Z,101893.17
2019-02-04T16:29:24.416Z,101885.44
2019-02-04T16:31:53.954Z,101876.78
2019-02-04T16:34:24.100Z,101889.02
2019-02-04T16:36:53.776Z,101884.67
2019-02-04T16:39:23.949Z,101891.77
2019-02-04T16:41:53.560Z,101888.79
2019-02-04T16:44:23.383Z,101887.91
2019-02-04T16:46:54.684Z,101890.44
2019-02-04T16:49:24.163Z,101887.20
2019-02-04T16:51:53.683Z,101891.22
2019-02-04T16:54:23.162Z,101893.00
2019-02-04T16:56:52.765Z,101884.97
2019-02-04T16:59:22.739Z,101894.63
2019-02-04T17:01:53.283Z,101895.27
2019-02-04T17:04:22.858Z,101898.98
2019-02-04T17:06:52.399Z,101901.05
2019-02-04T17:09:21.977Z,101897.44
2019-02-04T17:11:51.540Z,101894.87
2019-02-04T17:14:21.112Z,101894.22
2019-02-04T17:16:50.746Z,101899.25
2019-02-04T17:19:20.402Z,101889.09
2019-02-04T17:21:49.963Z,101886.20
2019-02-04T17:24:19.472Z,101885.42
2019-02-04T17:26:49.035Z,101879.94
2019-02-04T17:29:18.517Z,101865.66
2019-02-04T17:31:48.092Z,101867.20
2019-02-04T17:34:17.663Z,101867.42
2019-02-04T17:36:47.195Z,101868.70
2019-02-04T17:39:16.658Z,101881.12
2019-02-04T17:41:48.310Z,101876.88
2019-02-04T17:44:17.818Z,101876.67
2019-02-04T17:46:47.413Z,101870.81
2019-02-04T17:49:16.934Z,101855.23
2019-02-04T17:51:46.421Z,101845.44
2019-02-04T17:54:15.894Z,101839.18
2019-02-04T17:56:45.741Z,101845.39
2019-02-04T17:59:15.293Z,101839.95
2019-02-04T18:01:44.956Z,101851.17
2019-02-04T18:04:14.511Z,101850.31
2019-02-04T18:06:44.036Z,101846.09
2019-02-04T18:09:13.631Z,101841.81
2019-02-04T18:11:43.435Z,101849.53
2019-02-04T18:14:12.932Z,101851.65
2019-02-04T18:16:42.519Z,101853.84
2019-02-04T18:19:12.107Z,101855.94
2019-02-04T18:21:41.708Z,101847.91
2019-02-04T18:24:11.243Z,101853.48
2019-02-04T18:26:40.730Z,101849.21
2019-02-04T18:29:10.238Z,101845.35
2019-02-04T18:31:39.819Z,101845.12
2019-02-04T18:34:09.566Z,101860.93
2019-02-04T18:36:39.105Z,101852.31
2019-02-04T18:39:10.028Z,101850.20
2019-02-04T18:41:39.774Z,101855.30
2019-02-04T18:44:09.270Z,101857.29
2019-02-04T18:46:38.990Z,101851.73
2019-02-04T18:49:08.626Z,101852.59
2019-02-04T18:51:38.189Z,101852.95
2019-02-04T18:54:08.734Z,101852.15
2019-02-04T18:56:38.252Z,101850.92
2019-02-04T18:59:07.931Z,101847.39
2019-02-04T19:01:37.494Z,101853.09
2019-02-04T19:04:07.116Z,101847.63
2019-02-04T19:06:47.105Z,101850.50
2019-02-04T19:09:09.673Z,101850.38
2019-02-04T19:11:39.260Z,101849.38
2019-02-04T19:14:08.909Z,101847.33
2019-02-04T19:16:38.438Z,101845.45
2019-02-04T19:19:08.338Z,101839.73
2019-02-04T19:21:38.324Z,101839.19
2019-02-04T19:24:09.696Z,101832.18
2019-02-04T19:26:39.194Z,101831.41
2019-02-04T19:29:08.700Z,101821.23
2019-02-04T19:31:38.324Z,101819.55
2019-02-04T19:34:08.194Z,101823.64
2019-02-04T19:36:37.855Z,101815.91
2019-02-04T19:39:08.263Z,101819.87
2019-02-04T19:41:37.774Z,101824.52
2019-02-04T19:44:07.647Z,101821.88
2019-02-04T19:46:37.485Z,101823.34
2019-02-04T19:49:07.288Z,101835.52
2019-02-04T19:51:36.862Z,101829.44
2019-02-04T19:54:06.577Z,101833.47
2019-02-04T19:56:36.082Z,101839.45
2019-02-04T19:59:05.782Z,101832.42
2019-02-04T20:01:36.297Z,101833.89
2019-02-04T20:04:06.545Z,101828.56
2019-02-04T20:06:36.119Z,101839.79
2019-02-04T20:09:09.659Z,101828.19
2019-02-04T20:11:39.220Z,101839.91
2019-02-04T20:14:09.159Z,101826.22
2019-02-04T20:16:39.409Z,101837.33
2019-02-04T20:19:09.022Z,101842.26
2019-02-04T20:21:38.749Z,101843.88
2019-02-04T20:24:08.309Z,101846.70
2019-02-04T20:26:37.921Z,101840.89
2019-02-04T20:29:07.563Z,101852.20
2019-02-04T20:31:37.206Z,101849.23
2019-02-04T20:34:06.918Z,101850.38
2019-02-04T20:36:36.586Z,101840.49
2019-02-04T20:39:09.361Z,101850.28
2019-02-04T20:41:38.951Z,101841.13
2019-02-04T20:44:08.685Z,101844.59
2019-02-04T20:46:38.161Z,101847.33
2019-02-04T20:49:07.874Z,101843.84
2019-02-04T20:51:37.438Z,101849.40
2019-02-04T20:54:07.084Z,101850.92
2019-02-04T20:56:36.728Z,101861.04
2019-02-04T20:59:06.724Z,101860.12
2019-02-04T21:01:36.228Z,101858.88
2019-02-04T21:04:05.906Z,101858.99
2019-02-04T21:06:35.510Z,101871.29
2019-02-04T21:09:08.501Z,101873.09
2019-02-04T21:11:38.059Z,101873.14
2019-02-04T21:14:07.877Z,101873.62
2019-02-04T21:16:37.607Z,101877.67
2019-02-04T21:19:07.288Z,101879.00
2019-02-04T21:21:43.963Z,101885.03
2019-02-04T21:24:13.584Z,101884.50
2019-02-04T21:26:43.358Z,101878.72
2019-02-04T21:29:12.890Z,101885.45
2019-02-04T21:31:42.463Z,101889.27
2019-02-04T21:34:11.941Z,101887.33
2019-02-04T21:36:41.440Z,101891.88
2019-02-04T21:39:11.281Z,101904.40
2019-02-04T21:41:41.088Z,101906.02
2019-02-04T21:44:10.868Z,101906.30
2019-02-04T21:46:40.428Z,101896.83
2019-02-04T21:49:10.182Z,101890.27
2019-02-04T21:51:39.681Z,101886.25
2019-02-04T21:54:09.257Z,101889.66
2019-02-04T21:56:38.850Z,101905.97
2019-02-04T21:59:08.396Z,101904.60
2019-02-04T22:01:37.974Z,101904.91
2019-02-04T22:04:07.596Z,101898.56
2019-02-04T22:06:37.188Z,101901.68
2019-02-04T22:09:09.242Z,101898.72
2019-02-04T22:11:38.848Z,101904.40
2019-02-04T22:14:08.796Z,101902.59
2019-02-04T22:16:38.402Z,101903.50
2019-02-04T22:19:08.244Z,101906.28
2019-02-04T22:21:37.737Z,101897.86
2019-02-04T22:24:07.399Z,101899.07
2019-02-04T22:26:36.896Z,101897.44
2019-02-04T22:29:06.882Z,101893.10
2019-02-04T22:31:36.449Z,101898.59
2019-02-04T22:34:06.604Z,101895.77
2019-02-04T22:36:36.180Z,101896.63
2019-02-04T22:39:08.570Z,101900.09
2019-02-04T22:41:38.132Z,101900.94
2019-02-04T22:44:07.788Z,101904.19
2019-02-04T22:46:37.306Z,101904.22
2019-02-04T22:49:06.858Z,101904.52
2019-02-04T22:51:36.428Z,101902.17
2019-02-04T22:54:07.658Z,101897.25
2019-02-04T22:56:37.214Z,101904.78
2019-02-04T22:59:06.758Z,101904.42
2019-02-04T23:01:40.945Z,101915.92
2019-02-04T23:04:10.580Z,101918.45
2019-02-04T23:06:40.088Z,101928.80
2019-02-04T23:09:10.707Z,101924.63
2019-02-04T23:11:40.871Z,101920.91
2019-02-04T23:14:10.665Z,101912.49
2019-02-04T23:16:40.256Z,101908.02
2019-02-04T23:19:10.006Z,101908.91
2019-02-04T23:21:41.662Z,101906.02
2019-02-04T23:24:11.128Z,101913.56
2019-02-04T23:26:40.711Z,101910.41
2019-02-04T23:29:10.257Z,101910.30
2019-02-04T23:31:39.770Z,101920.34
2019-02-04T23:34:09.662Z,101911.47
2019-02-04T23:36:39.162Z,101908.88
2019-02-04T23:39:10.190Z,101911.73
2019-02-04T23:41:39.743Z,101923.23
2019-02-04T23:44:09.289Z,101912.59
2019-02-04T23:46:38.787Z,101915.67
2019-02-04T23:49:09.837Z,101912.67
2019-02-04T23:51:39.413Z,101914.22
2019-02-04T23:54:08.955Z,101912.59
2019-02-04T23:56:38.429Z,101906.94
2019-02-04T23:59:08.021Z,101898.81
